This is the latest recevied weather packets stored in our database for station/object KQ4NAL. If no packets are shown the sender has not sent any weather packets the latest 10 day(s).
| Time | Temp. | Humidity | Pressure | Rain* | Wind** | Luminosity | Snow |
|---|---|---|---|---|---|---|---|
| 1777486245 | 14.44° C | 94% | 1011.3 hPa | 0 mm | - | 304 W/m² | - |
| 1777485942 | 14.44° C | 94% | 1011.5 hPa | 0 mm | - | 172 W/m² | - |
| 1777485638 | 14.44° C | 94% | 1011.2 hPa | 0 mm | - | 147 W/m² | - |
| 1777485333 | 13.89° C | 95% | 1011.3 hPa | 0 mm | - | 171 W/m² | - |
| 1777485030 | 14.44° C | 95% | 1011.5 hPa | 0 mm | - | 76 W/m² | - |
| 1777484727 | 14.44° C | 95% | 1011.7 hPa | 0 mm | - | 94 W/m² | - |
| 1777484423 | 14.44° C | 95% | 1011.8 hPa | 0 mm | - | 103 W/m² | - |
| 1777484120 | 14.44° C | 96% | 1011.5 hPa | 0 mm | - | 151 W/m² | - |
| 1777483817 | 14.44° C | 96% | 1011.3 hPa | 0 mm | - | 327 W/m² | - |
| 1777483514 | 13.89° C | 97% | 1011.3 hPa | 0 mm | - | 306 W/m² | - |
| 1777483214 | 13.89° C | 97% | 1011.3 hPa | 0 mm | - | 186 W/m² | - |
| 1777482910 | 13.89° C | 98% | 1011.3 hPa | 0 mm | - | 172 W/m² | - |
| 1777482606 | 13.89° C | 98% | 1011.4 hPa | 0 mm | - | 144 W/m² | - |
| 1777482303 | 13.89° C | 98% | 1011.2 hPa | 0 mm | - | 219 W/m² | - |
| 1777482000 | 13.89° C | 98% | 1011.1 hPa | 0 mm | - | 313 W/m² | - |
| 1777481698 | 13.89° C | 98% | 1011.2 hPa | 0 mm | - | 231 W/m² | - |
| 1777481395 | 13.89° C | 98% | 1011.4 hPa | 0 mm | - | 150 W/m² | - |
| 1777481091 | 14.44° C | 98% | 1011.3 hPa | 0 mm | - | 114 W/m² | - |
| 1777480788 | 15° C | 98% | 1011.3 hPa | 0 mm | - | 126 W/m² | - |
| 1777480485 | 15° C | 98% | 1011.1 hPa | 0 mm | - | 162 W/m² | - |
| 1777480181 | 14.44° C | 98% | 1011.2 hPa | 0 mm | - | 163 W/m² | - |
| 1777479878 | 14.44° C | 98% | 1010.9 hPa | 0 mm | - | 169 W/m² | - |
| 1777479574 | 15° C | 99% | 1011.1 hPa | 0 mm | - | 142 W/m² | - |
| 1777479273 | 15.56° C | 98% | 1011 hPa | 0 mm | - | 103 W/m² | - |
| 1777478969 | 15.56° C | 99% | 1010.9 hPa | 0 mm | - | 86 W/m² | - |
* Rain latest hour (hover to see other rain measurements)
** Current wind speed in m/s (hover to see current wind gust speed)